ADDS METAR Data INFO
IDs: Format: Raw Decoded Include TAF

Data at: 2206 UTC 19 Feb 2018

KECP 192153Z AUTO 15013G19KT 10SM CLR 24/18 A3021 RMK AO2 SLP242 T02440178